Home > Products > Valid Products > TAF

000
FTUS41 KALY 272100 AAA
TAFALB
TAF AMD
KALB 272103Z 2721/2818 01010G15KT 6SM -SN OVC025
      TEMPO 2721/2722 3SM -SN OVC015
     FM272200 36012G20KT P6SM VCSH OVC035
     FM280000 33012G22KT P6SM OVC045
     FM280600 32010G15KT P6SM OVC050
     FM281500 32010G15KT P6SM SCT050=



000
FTUS41 KALY 272000 AAB
TAFGFL
TAF AMD
KGFL 272055Z 2721/2818 04008G14KT P6SM VCSH OVC040
      TEMPO 2721/2723 5SM -SN OVC030
     FM280100 36012G18KT P6SM OVC040
     FM281500 34010KT P6SM SCT050=



000
FTUS41 KALY 271900 AAA
TAFGFL
TAF AMD
KGFL 271938Z 2720/2818 04009KT 3SM -SN OVC025
      TEMPO 2720/2722 1 1/2SM -SN VV009
     FM272300 36012G18KT 5SM -SN OVC030
     FM280100 36012G18KT P6SM VCSH OVC035
     FM280700 35010G15KT P6SM OVC050
     FM281500 34010KT P6SM SCT050=



000
FTUS41 KALY 271700 RRB
TAFALB
TAF
KALB 271758Z 2718/2818 36010G15KT 1 1/2SM -SN OVC012
      TEMPO 2718/2721 3/4SM -SN VV007
     FM272200 36012G20KT 4SM -SN OVC025
     FM280000 33012G22KT P6SM VCSH OVC045
     FM280600 32010G15KT P6SM OVC050
     FM281500 32010G15KT P6SM SCT050=



000
FTUS41 KALY 271700 RRB
TAFPOU
TAF
KPOU 271758Z 2718/2818 36012G20KT 3SM -SN OVC025
      TEMPO 2718/2719 1SM -SN VV009
     FM272000 36012G20KT 6SM -SN OVC035
     FM272200 34012G20KT P6SM VCSH OVC045
     FM280400 33010G15KT P6SM OVC050
     FM281300 33010G15KT P6SM SCT050=



000
FTUS41 KALY 271700 RRB
TAFGFL
TAF
KGFL 271758Z 2718/2818 04009KT 1 1/2SM -SN OVC015
      TEMPO 2718/2722 3/4SM -SN VV008
     FM272300 36012G18KT 4SM -SN OVC025
     FM280100 36012G18KT P6SM VCSH OVC035
     FM280700 35010G15KT P6SM OVC050
     FM281500 34010KT P6SM SCT050=



000
FTUS41 KALY 271700 RRA
TAFALB
TAF
KALB 271747Z 2718/2818 36010G15KT 1 1/2SM -SN OVC012
      TEMPO 2718/2721 3/4SM -SN VV007
     FM272200 36012G20KT 4SM -SN OVC025
     FM280000 33012G22KT P6SM VCSH OVC045
     FM280600 32010G15KT P6SM OVC050
     FM281500 32010G15KT P6SM SCT050=



000
FTUS41 KALY 271700 RRA
TAFGFL
TAF
KGFL 271747Z 2718/2818 04009KT 1 1/2SM -SN OVC015
      TEMPO 2718/2722 3/4SM -SN VV008
     FM272300 36012G18KT 4SM -SN OVC025
     FM280100 36012G18KT P6SM VCSH OVC035
     FM280700 35010G15KT P6SM OVC050
     FM281500 34010KT P6SM SCT050=



000
FTUS41 KALY 271700 RRA
TAFPOU
TAF
KPOU 271747Z 2718/2818 36012G20KT 3SM -SN OVC025
      TEMPO 2718/2719 1SM -SN VV009
     FM272000 36012G20KT 6SM -SN OVC035
     FM272200 34012G20KT P6SM VCSH OVC045
     FM280400 33010G15KT P6SM OVC050
     FM281300 33010G15KT P6SM SCT050=



000
FTUS41 KALY 271700 AAB
TAFPOU
TAF AMD
KPOU 271701Z 2717/2812 36012G22KT 2SM -SN OVC025
      TEMPO 2717/2719 1SM -SN OVC015
     FM271900 34014G24KT P6SM VCSH OVC045
     FM280000 33010G20KT P6SM OVC045
     FM280600 34007KT P6SM OVC050=



000
FTUS41 KALY 271500 AAA
TAFGFL
TAF AMD
KGFL 271558Z 2716/2812 04007KT 1 1/2SM -SN OVC015
      TEMPO 2716/2720 3/4SM -SN VV008
     FM280000 36012G22KT P6SM OVC045
     FM280600 36008KT P6SM OVC050=



000
FTUS41 KALY 271500 AAB
TAFALB
TAF AMD
KALB 271533Z 2716/2812 34011KT 1 1/2SM -SN OVC015
      TEMPO 2716/2719 3/4SM -SN VV008
     FM272000 36015G25KT P6SM VCSH OVC045
     FM280000 33010G20KT P6SM OVC045
     FM280600 32010KT P6SM OVC050=



000
FTUS41 KALY 271400 AAA
TAFALB
TAF AMD
KALB 271417Z 2714/2812 34011KT 2SM -SN OVC030
      TEMPO 2714/2718 1SM -SN OVC015
     FM271900 36015G25KT P6SM VCSH OVC045
     FM280000 33010G20KT P6SM OVC045
     FM280600 32010KT P6SM OVC050=



000
FTUS41 KALY 271300 AAA
TAFPOU
TAF AMD
KPOU 271328Z 2713/2812 36014G24KT 3SM -SN OVC030
      TEMPO 2713/2717 1 1/2SM -SN OVC015
     FM271700 34014G24KT P6SM VCSH OVC045
     FM280000 33010G20KT P6SM OVC045
     FM280600 34007KT P6SM OVC050=



000
FTUS41 KALY 271100
TAFALB
TAF
KALB 271133Z 2712/2812 34011KT P6SM -SN OVC040
      TEMPO 2712/2716 5SM -SN OVC025
     FM271600 36015G25KT P6SM VCSH OVC045
     FM280000 33010G20KT P6SM OVC045
     FM280600 32010KT P6SM OVC050=



000
FTUS41 KALY 271100
TAFPOU
TAF
KPOU 271133Z 2712/2812 36012G21KT P6SM -SN OVC040
      TEMPO 2712/2716 3SM -SN OVC025
     FM271600 34012G22KT P6SM VCSH OVC045
     FM280000 33010G20KT P6SM OVC045
     FM280600 34007KT P6SM OVC050=



000
FTUS41 KALY 271100
TAFGFL
TAF
KGFL 271133Z 2712/2812 04007KT P6SM VCSH OVC060
      TEMPO 2712/2716 5SM -SN OVC025
     FM280000 36012G22KT P6SM OVC045
     FM280600 36008KT P6SM OVC050=



000
FTUS41 KALY 271000 AAD
TAFPOU
TAF AMD
KPOU 271059Z 2711/2806 36012G21KT 3SM -SN OVC040
     FM272100 34012G22KT 5SM -SN BR OVC025
     FM280000 33010G20KT P6SM OVC045=



000
FTUS41 KALY 271000 AAC
TAFPOU
TAF AMD
KPOU 271045Z 2711/2806 36012G20KT 2SM -SN OVC030
      TEMPO 2711/2712 1/2SM SN FZFG OVC008
     FM272100 34012G22KT 5SM -SN BR OVC025
     FM280000 33010G20KT P6SM OVC045=



000
FTUS41 KALY 271000 AAB
TAFGFL
TAF AMD
KGFL 271044Z 2711/2806 04007KT P6SM VCSH OVC100
     FM271500 02009KT 2SM -SN BR OVC008
     FM272100 36012G18KT 5SM -SN BR OVC015
     FM280000 36012G22KT P6SM OVC045=



000
FTUS41 KALY 271000 AAA
TAFALB
TAF AMD
KALB 271044Z 2711/2806 36010KT P6SM -SN OVC050
     FM271500 36015G25KT 2SM -SN BR OVC008
     FM272100 33012G22KT 5SM -SN BR OVC015
     FM280000 33010G20KT P6SM OVC045=



000
FTUS41 KALY 270800 AAA
TAFGFL
TAF AMD
KGFL 270856Z 2709/2806 07004KT P6SM VCSH OVC110
     FM271000 01008KT 5SM -SN BR OVC025
     FM271500 02009KT 2SM -SN BR OVC008
     FM272100 36012G18KT 5SM -SN BR OVC015
     FM280000 36012G22KT P6SM OVC045=



000
FTUS41 KALY 270800 AAB
TAFPOU
TAF AMD
KPOU 270855Z 2709/2806 36012G20KT 1SM -SN VV013
      TEMPO 2709/2712 1/2SM SN FZFG OVC008
     FM272100 34012G22KT 5SM -SN BR OVC025
     FM280000 33010G20KT P6SM OVC045=



000
FTUS41 KALY 270700 AAA
TAFPOU
TAF AMD
KPOU 270753Z 2708/2806 36010KT 3/4SM -SN VV014
      TEMPO 2708/2712 1/2SM SN FZFG OVC008
     FM272100 34012G22KT 5SM -SN BR OVC025
     FM280000 33010G20KT P6SM OVC045=



000
FTUS41 KALY 270500 CCB
TAFPOU
TAF COR
KPOU 270555Z 2706/2806 35011KT 2SM -SN OVC040
      TEMPO 2706/2708 1SM -SN BR OVC008
     FM270800 01012G18KT 2SM -SN BR OVC015
      TEMPO 2708/2712 1/2SM SN FZFG OVC008
     FM272100 34012G22KT 5SM -SN BR OVC025
     FM280000 33010G20KT P6SM OVC045=



000
FTUS41 KALY 270500 CCA
TAFPOU
TAF COR
KPOU 270538Z 2706/2806 01011G21KT 4SM -SN OVC050
      TEMPO 2706/2708 2SM -SN BR OVC008
     FM270800 01012G18KT 2SM -SN BR OVC015
      TEMPO 2708/2712 1/2SM SN FZFG OVC008
     FM272100 34012G22KT 5SM -SN BR OVC025
     FM280000 33010G20KT P6SM OVC045=



000
FTUS41 KALY 270500
TAFGFL
TAF
KGFL 270528Z 2706/2806 36012KT P6SM VCSH SKC
     FM271000 01008KT 5SM -SN BR OVC025
     FM271500 02009KT 2SM -SN BR OVC008
     FM272100 36012G18KT 5SM -SN BR OVC015
     FM280000 36012G22KT P6SM OVC045=



000
FTUS41 KALY 270500
TAFALB
TAF
KALB 270528Z 2706/2806 36009KT P6SM VCSH OVC060
     FM271000 01012KT 5SM -SN BR OVC025
     FM271500 36015G25KT 2SM -SN BR OVC008
     FM272100 33012G22KT 5SM -SN BR OVC015
     FM280000 33010G20KT P6SM OVC045=



000
FTUS41 KALY 270500
TAFPOU
TAF
KPOU 270528Z 2706/2806 01011G21KT 4SM -SN OVC050
     FM270800 01012G18KT 2SM -SN BR OVC015
      TEMPO 2708/2712 1/2SM SN FZFG OVC008
     FM272100 34012G22KT 5SM -SN BR OVC025
     FM280000 33010G20KT P6SM OVC045=



000
FTUS41 KALY 270500 AAC
TAFALB
TAF AMD
KALB 270501Z 2705/2724 36009KT P6SM OVC060
     FM270700 01012KT 3/4SM -SN BR OVC008
     FM271200 36015G25KT 1/2SM SN FZFG BLSN VV003=



000
FTUS41 KALY 270400 AAA
TAFPOU
TAF AMD
KPOU 270441Z 2705/2724 36013G20KT 3SM -SN OVC040
      TEMPO 2705/2706 2SM -SN BR BKN009 OVC025
     FM270600 01012G18KT 3/4SM -SN BR VV006
     FM271000 01014G23KT 1/2SM SN FZFG VV004
     FM271200 36015G27KT 1/4SM +SN FZFG BLSN VV002=



000
FTUS41 KALY 270200 AAB
TAFALB
TAF AMD
KALB 270229Z 2702/2724 01008KT 6SM -SN BR SCT035 OVC050
      TEMPO 2702/2705 1 1/2SM -SN BR BKN008 OVC035
     FM270500 02010KT 4SM -SN BR BKN030 OVC060
     FM270700 01012KT 3/4SM -SN BR OVC008
     FM271200 36015G25KT 1/2SM SN FZFG BLSN VV003=



000
FTUS41 KALY 270100 AAA
TAFALB
TAF AMD
KALB 270156Z 2702/2724 01008KT 6SM -SN BR SCT035 OVC050
      TEMPO 2702/2703 1 1/2SM -SN BR BKN008 OVC035
     FM270300 02010KT 4SM -SN BR BKN030 OVC060
     FM271100 01012KT 3/4SM -SN BR OVC008
     FM271500 36015G25KT 1/2SM SN FZFG BLSN VV003=



000
FTUS41 KALY 262300 CCA
TAFALB
TAF COR
KALB 262356Z 2700/2724 01008KT 6SM -SN BR SCT035 OVC050
      TEMPO 2700/2703 2SM -SN BR BKN008 OVC035
     FM270300 02010KT 4SM -SN BR BKN030 OVC060
     FM271100 01012KT 3/4SM -SN BR OVC008
     FM271500 36015G25KT 1/2SM SN FZFG BLSN VV003=



000
FTUS41 KALY 262300
TAFGFL
TAF
KGFL 262333Z 2700/2724 36008KT P6SM VCSH OVC050
     FM270800 01008KT 5SM -SN BR OVC025
     FM271300 02009KT 2SM -SN BR OVC008
     FM271700 01012G18KT 3/4SM -SN BR VV003=



000
FTUS41 KALY 262300
TAFPOU
TAF
KPOU 262333Z 2700/2724 01010KT 6SM -SN BR FEW015 OVC040
      TEMPO 2702/2706 2SM -SN BR BKN009 OVC025
     FM270600 01012G18KT 3/4SM -SN BR VV006
     FM271000 01014G23KT 1/2SM SN FZFG VV004
     FM271200 36015G27KT 1/4SM +SN FZFG BLSN VV002=



000
FTUS41 KALY 262300
TAFALB
TAF
KALB 262333Z 2700/2724 01008KT 6SM -SN BR SCT035 OVC050
      TEMPO 2701/2703 2SM -SN BR BKN008 OVC035
     FM270300 02010KT 4SM -SN BR BKN030 OVC060
     FM271100 01012KT 3/4SM -SN BR OVC008
     FM271500 36015G25KT 1/2SM SN FZFG BLSN VV003=



000
FTUS41 KALY 262100 AAA
TAFPOU
TAF AMD
KPOU 262144Z 2622/2718 01008KT 4SM -SN BR OVC015
      TEMPO 2622/2701 1SM -SN BR OVC007
     FM270100 02010G15KT 3/4SM -SN BR VV006
     FM270800 02012G20KT 1/2SM SN FZFG VV004
     FM271200 02014G24KT 1/4SM +SN FZFG VV002=



000
FTUS41 KALY 262100 AAA
TAFALB
TAF AMD
KALB 262143Z 2622/2718 02007KT 6SM -SN BR FEW025 OVC035
      TEMPO 2622/2624 2SM -SN BR BKN025
     FM270000 01008KT 4SM -SN BR SCT020 OVC030
     FM270500 36009KT 1SM -SN BR OVC015
     FM270800 36010KT 3/4SM -SN BR OVC008
     FM271200 36012G18KT 1/2SM SN FZFG VV003=



000
FTUS41 KALY 261700
TAFGFL
TAF
KGFL 261731Z 2618/2718 36009KT P6SM OVC080
     FM262300 01008KT P6SM VCSH OVC035
     FM270300 04007KT 4SM -SN BR SCT020 OVC030
     FM270800 36008KT 1SM -SN BR OVC015
     FM271100 36009KT 3/4SM -SN BR OVC008
     FM271400 36010KT 1/2SM SN FZFG VV003=



000
FTUS41 KALY 261700
TAFALB
TAF
KALB 261731Z 2618/2718 02007KT P6SM OVC060
     FM262000 02007KT P6SM VCSH OVC035
     FM270000 01008KT 4SM -SN BR SCT020 OVC030
     FM270500 36009KT 1SM -SN BR OVC015
     FM270800 36010KT 3/4SM -SN BR OVC008
     FM271200 36012G18KT 1/2SM SN FZFG VV003=



000
FTUS41 KALY 261700
TAFPOU
TAF
KPOU 261731Z 2618/2718 02007KT 6SM -SN OVC035
      TEMPO 2618/2622 2SM -SN OVC020
     FM262200 01008KT 3SM -SN BR OVC012
      TEMPO 2622/2701 1SM -SN BR OVC007
     FM270100 02010G15KT 3/4SM -SN BR VV006
     FM270800 02012G20KT 1/2SM SN FZFG VV004
     FM271200 02014G24KT 1/4SM +SN FZFG VV002=



000
FTUS41 KALY 261700 AAB
TAFPOU
TAF AMD
KPOU 261702Z 2617/2712 36008KT P6SM VCSH OVC035
     FM261800 03007KT 5SM -SN BR SCT010 OVC025
     FM261900 03008KT 2SM -SN BR OVC009
     FM262300 02009G15KT 3/4SM -SN BR VV006=



000
FTUS41 KALY 261500 AAA
TAFPOU
TAF AMD
KPOU 261535Z 2616/2712 03005KT P6SM OVC050
     FM261600 03005KT P6SM VCSH OVC035
     FM261700 03007KT 3SM -SN BR SCT010 OVC025
     FM261800 03008KT 1 1/2SM -SN BR OVC009
     FM262300 02009G15KT 3/4SM -SN BR VV006=



000
FTUS41 KALY 261100
TAFPOU
TAF
KPOU 261126Z 2612/2712 03005KT P6SM BKN035 OVC050
     FM261400 03005KT P6SM VCSH BKN025 OVC035
     FM261600 03007KT 3SM -SN BR SCT010 OVC020
     FM261800 03008KT 1 1/2SM -SN BR OVC009
     FM262300 02009G15KT 3/4SM -SN BR VV006=



000
FTUS41 KALY 261100
TAFGFL
TAF
KGFL 261126Z 2612/2712 03005KT P6SM SCT080 BKN100 OVC150
     FM261600 04006KT P6SM VCSH BKN040 OVC060
     FM262100 04007KT 3SM -SN BR SCT020 OVC030
     FM270300 01010KT 1SM -SN BKN015 OVC025=



000
FTUS41 KALY 261100
TAFALB
TAF
KALB 261126Z 2612/2712 02007KT P6SM SCT080 BKN100 OVC150
     FM261600 02007KT P6SM VCSH BKN040 OVC060
     FM261900 04007KT 3SM -SN BR SCT020 OVC030
     FM270000 36009KT 1SM -SN BR BKN020 OVC030
     FM270300 36010KT 3/4SM -SN BR BKN015 OVC025=



000
FTUS41 KALY 260500
TAFALB
TAF
KALB 260538Z 2606/2706 35005KT P6SM SCT100 BKN250
     FM261100 01005KT P6SM SCT080 BKN100 OVC150
     FM261600 02007KT P6SM VCSH BKN040 OVC060
     FM262100 04007KT 3SM -SN BR SCT020 OVC030
     FM270000 36009KT 1SM -SN BR BKN020 OVC030=



000
FTUS41 KALY 260500
TAFGFL
TAF
KGFL 260538Z 2606/2706 00000KT P6SM SCT100 BKN250
     FM261200 03003KT P6SM SCT080 BKN100 OVC150
     FM261600 04004KT P6SM VCSH BKN040 OVC060
     FM262100 04007KT 3SM -SN BR SCT020 OVC030=



000
FTUS41 KALY 260500
TAFPOU
TAF
KPOU 260538Z 2606/2706 02005KT P6SM BKN100 OVC200
     FM261100 03005KT P6SM BKN035 OVC045
     FM261400 03005KT P6SM VCSH BKN025 OVC035
     FM261600 03007KT 4SM -SN BR SCT010 OVC020
     FM261800 03008KT 1 1/2SM -SN BR OVC009
     FM262300 02009G15KT 3/4SM -SN BR VV006=



000
FTUS41 KALY 252300
TAFPOU
TAF
KPOU 252337Z 2600/2624 34003KT P6SM BKN250
     FM260600 02003KT P6SM BKN120 OVC250
     FM261100 03003KT P6SM BKN040 OVC060
     FM261400 03005KT P6SM VCSH BKN030 OVC050
     FM261600 03007KT 4SM -SN BR OVC020
     FM261800 03008KT 2SM -SN BR OVC009
     FM262200 02009G15KT 3/4SM -SN BR VV006=



000
FTUS41 KALY 252300
TAFALB
TAF
KALB 252337Z 2600/2624 30010KT P6SM SCT250
     FM260600 02003KT P6SM BKN250
     FM261200 01003KT P6SM BKN120 OVC250
     FM261600 05009KT P6SM VCSH BKN040 OVC060
     FM262000 02004KT 5SM -SN BR OVC020
     FM262200 02006KT 2SM -SN BR OVC009=



000
FTUS41 KALY 252300
TAFGFL
TAF
KGFL 252337Z 2600/2624 35004KT P6SM FEW250
     FM260600 00000KT P6SM BKN250
     FM261200 03003KT P6SM BKN120 OVC250
     FM261800 04004KT P6SM VCSH BKN040 OVC060
     FM262200 03006KT 5SM -SN BR OVC030=



000
FTUS41 KALY 251700
TAFGFL
TAF
KGFL 251730Z 2518/2618 32012G18KT P6SM SCT040
     FM260000 33005KT P6SM SKC
     FM261200 01005KT P6SM BKN100 OVC200
     FM261500 05008KT P6SM VCSH BKN100 OVC200=



000
FTUS41 KALY 251700
TAFALB
TAF
KALB 251730Z 2518/2618 32012G21KT P6SM SCT050
     FM260000 33008KT P6SM SCT200
     FM260900 35004KT P6SM BKN100 OVC200
     FM261200 03005KT P6SM VCSH BKN050 OVC100
     FM261500 05009KT 5SM -SHSN BKN025 OVC050=



000
FTUS41 KALY 251700
TAFPOU
TAF
KPOU 251730Z 2518/2618 29010G15KT P6SM SCT050
     FM260000 36004KT P6SM BKN200
     FM260900 01005KT P6SM BKN060 OVC100
     FM261200 03006KT 3SM -SN OVC050
     FM261500 05008KT 1SM -SN OVC020=



000
FTUS41 KALY 251100 AAA
TAFALB
TAF AMD
KALB 251157Z 2512/2612 28015G25KT P6SM VCSH SCT025 OVC040
      TEMPO 2512/2513 28020G35KT 3SM -SHSN BR BKN025 OVC040
     FM251300 30017G27KT P6SM BKN050
     FM251500 32012G21KT P6SM SCT050
     FM252300 33008KT P6SM BKN200
     FM260700 36004KT P6SM BKN120 OVC200=



000
FTUS41 KALY 251100 AAA
TAFGFL
TAF AMD
KGFL 251144Z 2512/2612 23010KT P6SM VCSH SCT025 BKN040
      TEMPO 2512/2513 26012G24KT 2SM -SHSN BR BKN008 OVC025
     FM251300 28012G23KT P6SM BKN040
     FM251500 30010G20KT P6SM SCT050
     FM252300 02005KT P6SM BKN250=



000
FTUS41 KALY 251100
TAFPOU
TAF
KPOU 251122Z 2512/2612 25008KT P6SM VCSH BKN040
     FM251500 29010G15KT P6SM SCT050
     FM251900 33008KT P6SM FEW050
     FM252300 36004KT P6SM BKN200
     FM260500 01003KT P6SM BKN100 OVC200=



000
FTUS41 KALY 251100
TAFALB
TAF
KALB 251122Z 2512/2612 28015G25KT P6SM VCSH SCT025 OVC040
      TEMPO 2512/2513 3SM -SHSN BR BKN025 OVC040
     FM251300 30017G27KT P6SM BKN050
     FM251500 32012G21KT P6SM SCT050
     FM252300 33008KT P6SM BKN200
     FM260700 36004KT P6SM BKN120 OVC200=



000
FTUS41 KALY 251100
TAFGFL
TAF
KGFL 251122Z 2512/2612 22010KT P6SM VCSH SCT025 BKN040
      TEMPO 2512/2514 25012G24KT 3SM -SHSN BR BKN025 OVC040
     FM251400 32012G18KT P6SM SCT040
     FM252300 02005KT P6SM BKN250=



000
FTUS41 KALY 250900 AAA
TAFGFL
TAF AMD
KGFL 250954Z 2510/2606 22010KT P6SM VCSH SCT025 BKN040
      TEMPO 2510/2514 25012G24KT 2SM -SHSN BR BKN025 OVC040
     FM251400 32012G18KT P6SM SCT040
     FM252300 01005KT P6SM SKC=



000
FTUS41 KALY 250900 AAA
TAFGFL
TAF AMD
KGFL 250954Z 2510/2606 22010KT P6SM VCSH SCT025 BKN040
      TEMPO 2510/2514 25012G24KT 2SM -SHSN BR BKN025 OVC040
     FM251400 32012G18KT P6SM SCT040
     FM252300 01005KT P6SM SKC=



000
FTUS41 KALY 250800 AAA
TAFALB
TAF AMD
KALB 250855Z 2509/2606 25008KT P6SM VCSH BKN025 OVC040
      TEMPO 2509/2512 27010G20KT 3SM -SHSN BR BKN015 OVC030
     FM251200 30014G22KT P6SM VCSH BKN025 OVC045
     FM251500 31015G25KT P6SM SCT050
     FM252300 33008KT P6SM SKC=



000
FTUS41 KALY 250500
TAFGFL
TAF
KGFL 250524Z 2506/2606 21006KT 6SM BR VCSH SCT018 OVC070
      TEMPO 2506/2510 5SM -SHSN BR BKN015 OVC035
     FM251000 26010KT P6SM VCSH SCT025 BKN040
     FM251400 32012G18KT P6SM SCT040
     FM252300 01005KT P6SM SKC=



000
FTUS41 KALY 250500
TAFALB
TAF
KALB 250524Z 2506/2606 29012G18KT P6SM VCSH BKN015 OVC040
     FM251200 30014G22KT P6SM VCSH BKN025 OVC045
     FM251500 31015G25KT P6SM SCT050
     FM252300 33008KT P6SM SKC=



000
FTUS41 KALY 250500
TAFPOU
TAF
KPOU 250524Z 2506/2606 27004KT P6SM BKN035 BKN080
     FM251400 29010G15KT P6SM SCT050
     FM251900 33008KT P6SM FEW050
     FM252300 36004KT P6SM FEW250=



000
FTUS41 KALY 250400 AAC
TAFGFL
TAF AMD
KGFL 250405Z 2504/2524 21005KT 6SM BR VCSH BKN035 OVC080
     FM250700 24005KT P6SM VCSH BKN060
     FM251200 31011KT P6SM SCT060
     FM251500 33009KT P6SM FEW060=



000
FTUS41 KALY 250300 AAB
TAFGFL
TAF AMD
KGFL 250349Z 2504/2524 19005KT 3SM BR BKN035 OVC060
     FM250700 24005KT P6SM BKN060
     FM251200 31011KT P6SM SCT060
     FM251500 33009KT P6SM FEW060=



000
FTUS41 KALY 250300 AAB
TAFGFL
TAF AMD
KGFL 250349Z 2504/2524 19005KT 3SM BR BKN035 OVC060
     FM250700 24005KT P6SM BKN060
     FM251200 31011KT P6SM SCT060
     FM251500 33009KT P6SM FEW060=



000
FTUS41 KALY 250300 AAB
TAFALB
TAF AMD
KALB 250329Z 2503/2524 29012G19KT P6SM BKN018 OVC040
     FM250700 29011KT P6SM BKN040 OVC060
     FM251200 30013KT P6SM SCT060
     FM251600 30009KT P6SM FEW060=



000
FTUS41 KALY 250200 AAA
TAFALB
TAF AMD
KALB 250200Z 2502/2524 30009KT P6SM SCT100 BKN250
      TEMPO 2502/2504 BKN020 OVC040
     FM250500 27009KT P6SM BKN040 OVC060
     FM251200 30013KT P6SM SCT060
     FM251600 30009KT P6SM FEW060=



000
FTUS41 KALY 250200 AAA
TAFALB
TAF AMD
KALB 250200Z 2502/2524 30009KT P6SM SCT100 BKN250
      TEMPO 2502/2504 BKN020 OVC040
     FM250500 27009KT P6SM BKN040 OVC060
     FM251200 30013KT P6SM SCT060
     FM251600 30009KT P6SM FEW060=



000
FTUS41 KALY 250000 AAA
TAFGFL
TAF AMD
KGFL 250047Z 2501/2524 00000KT P6SM SCT060 SCT250
      TEMPO 2501/2504 2SM BR BKN020
     FM250400 24005KT P6SM BKN035 OVC060
     FM251200 31011KT P6SM SCT060
     FM251500 33009KT P6SM FEW060=



000
FTUS41 KALY 250000 AAB
TAFPOU
TAF AMD
KPOU 250025Z 2500/2524 30004KT P6SM SCT100
      TEMPO 2500/2504 1/4SM FZFG VV003
     FM250600 29004KT P6SM OVC050
     FM251200 29009KT P6SM SCT050
     FM251600 29008KT P6SM FEW050=



000
FTUS41 KALY 250000 AAA
TAFPOU
TAF AMD
KPOU 250018Z 2500/2524 30004KT P6SM SCT100
      TEMPO 2500/2504 1/4SM FZFG SKC
     FM250600 29004KT P6SM OVC050
     FM251200 29009KT P6SM SCT050
     FM251600 29008KT P6SM FEW050=



000
FTUS41 KALY 242300
TAFPOU
TAF
KPOU 242337Z 2500/2524 30004KT P6SM BKN100
     FM250600 29004KT P6SM OVC050
     FM251200 29009KT P6SM SCT050
     FM251600 29008KT P6SM FEW050=



000
FTUS41 KALY 242300
TAFGFL
TAF
KGFL 242337Z 2500/2524 00000KT P6SM SCT060 SCT250
      TEMPO 2500/2504 4SM BR BKN020
     FM250400 24005KT P6SM BKN035 OVC060
     FM251200 31011KT P6SM SCT060
     FM251500 33009KT P6SM FEW060=



000
FTUS41 KALY 242300
TAFALB
TAF
KALB 242337Z 2500/2524 30009KT P6SM SCT100 BKN250
     FM250500 27009KT P6SM BKN040 OVC060
     FM251200 30013KT P6SM SCT060
     FM251600 30009KT P6SM FEW060=



    US Dept of Commerce
    National Oceanic and Atmospheric Administration
    National Weather Service
    1325 East West Highway
    Silver Spring, MD 20910
    Page Author: NWS Internet Services Team
Disclaimer
Information Quality
Credits
Glossary
Privacy Policy
Freedom of Information Act (FOIA)
About Us
Career Opportunities